Flight Track Log - Related Links

Times and Time Zones

All times are in EDT time to prevent confusion due to time zone crossing. See the SWA385 flight status page for this flight to view local times or setup timezone preferences in your user account.

Time Position Orientation Groundspeed Altitude Reporting Facility
EDT Latitude Longitude Course Direction KTS MPH feet Rate Location/Type
Mon 12:30:54 AM 38.6833 -121.6000 127° Southeast 152 175 1,100  Level Northern Cal TRACON
Mon 12:33:04 AM 38.6042 -121.4653 127° Southeast 242 278 5,600 2,670 Climbing Oakland Center
Mon 12:34:05 AM 38.5642 -121.3808 121° Southeast 270 311 9,600 3,393 Climbing Oakland Center
Mon 12:35:06 AM 38.5228 -121.2894 120° Southeast 290 334 12,500 3,220 Climbing Oakland Center
Mon 12:36:08 AM 38.4589 -121.1597 122° Southeast 353 406 16,200 3,148 Climbing Oakland Center
Mon 12:37:08 AM 38.4133 -121.0631 121° Southeast 375 432 18,900 2,826 Climbing Oakland Center
Mon 12:38:09 AM 38.3561 -120.9433 121° Southeast 395 455 21,900 3,197 Climbing Oakland Center
Mon 12:39:10 AM 38.2858 -120.7950 121° Southeast 408 470 25,400 2,951 Climbing Oakland Center
Mon 12:40:11 AM 38.2217 -120.6725 124° Southeast 416 479 27,900 2,311 Climbing Oakland Center
Mon 12:41:12 AM 38.1278 -120.5806 142° Southeast 427 491 30,100 2,066 Climbing Oakland Center
Mon 12:42:13 AM 38.0339 -120.4864 142° Southeast 430 495 32,100 1,918 Climbing Oakland Center
Mon 12:43:14 AM 37.9356 -120.3931 143° Southeast 438 504 34,000 1,820 Climbing Oakland Center
Mon 12:44:15 AM 37.8392 -120.2981 142° Southeast 442 509 35,800 1,721 Climbing Oakland Center
Mon 12:45:16 AM 37.7417 -120.2039 143° Southeast 441 507 37,500 1,426 Climbing Oakland Center
Mon 12:46:17 AM 37.6444 -120.1100 143° Southeast 442 509 38,700 1,328 Climbing Oakland Center
Mon 12:47:18 AM 37.5469 -120.0150 142° Southeast 443 510 40,200 1,131 Climbing Oakland Center
Mon 12:48:19 AM 37.4497 -119.9236 143° Southeast 436 502 41,000 393 Climbing Oakland Center
Mon 12:49:20 AM 37.3544 -119.8311 142° Southeast 434 499 41,000  Level Oakland Center
Mon 12:50:21 AM 37.2594 -119.7417 143° Southeast 436 502 41,000  Level Oakland Center
Mon 12:51:22 AM 37.1439 -119.6322 143° Southeast 434 499 41,000  Level Oakland Center
Mon 12:52:23 AM 37.0350 -119.5944 165° South 418 481 41,000  Level Oakland Center
Mon 12:53:24 AM 36.9217 -119.5972 181° South 411 473 41,000  Level Oakland Center
Mon 12:54:25 AM 36.8094 -119.6003 181° South 406 467 41,000  Level Oakland Center
Mon 12:55:26 AM 36.6956 -119.6025 181° South 407 468 41,000  Level Oakland Center
Mon 12:56:27 AM 36.5825 -119.6050 181° South 406 467 41,000  Level Oakland Center
Mon 12:57:28 AM 36.4675 -119.6058 180° South 411 473 41,000  Level Oakland Center
Mon 12:58:29 AM 36.3539 -119.6081 181° South 410 472 41,000  Level Oakland Center
Mon 12:59:30 AM 36.2392 -119.6106 181° South 410 472 41,000  Level Oakland Center
Mon 01:00:31 AM 36.1253 -119.6114 180° South 410 472 41,000  Level Oakland Center
Mon 01:01:32 AM 36.0111 -119.6128 181° South 409 471 41,000  Level Oakland Center
Mon 01:02:33 AM 35.8964 -119.6172 182° South 410 472 41,000  Level Oakland Center
Mon 01:03:34 AM 35.7825 -119.6208 181° South 409 471 41,000  Level Oakland Center
Mon 01:04:35 AM 35.6669 -119.6206 180° South 415 478 41,000  Level Oakland Center
Mon 01:05:36 AM 35.5311 -119.5739 164° South 419 482 41,000  Level Oakland Center
Mon 01:06:17 AM 35.4878 -119.5600 165° South 416 479 41,000  Level Los Angeles Center
Mon 01:07:18 AM 35.3517 -119.5150 165° South 419 482 41,000  Level Los Angeles Center
Mon 01:08:20 AM 35.2389 -119.4761 164° South 419 482 41,000  Level Los Angeles Center
Mon 01:09:21 AM 35.1325 -119.4058 152° Southeast 430 495 41,000 -244 Level Los Angeles Center
Mon 01:10:23 AM 35.0250 -119.3353 152° Southeast 434 499 40,500 -1,366 Descending Los Angeles Center
Mon 01:11:24 AM 34.9200 -119.2653 151° Southeast 432 497 38,200 -2,683 Descending Los Angeles Center
Mon 01:12:26 AM 34.7975 -119.1803 150° Southeast 425 489 35,000 -3,024 Descending Los Angeles Center
Mon 01:13:27 AM 34.6950 -119.1111 151° Southeast 429 494 32,000 -2,634 Descending Los Angeles Center
Mon 01:14:29 AM 34.5889 -119.0408 151° Southeast 435 501 29,600 -2,341 Descending Los Angeles Center
Mon 01:15:30 AM 34.4839 -118.9692 151° Southeast 433 498 27,200 -2,244 Descending Los Angeles Center
Mon 01:16:32 AM 34.3825 -118.9003 151° Southeast 422 486 25,000 -2,244 Descending Los Angeles Center
Mon 01:17:33 AM 34.2756 -118.8525 160° South 408 470 22,600 -2,311 Descending Los Angeles Center
Mon 01:18:34 AM 34.1711 -118.8133 163° South 393 452 20,300 -2,488 Descending Los Angeles Center
Mon 01:19:36 AM 34.0517 -118.7697 163° South 378 435 17,500 -2,439 Descending Los Angeles Center
Mon 01:20:37 AM 33.9564 -118.7353 163° South 362 417 15,300 -1,707 Descending Los Angeles Center
Mon 01:21:39 AM 33.8553 -118.6975 163° South 356 410 14,000 -634 Descending Los Angeles Center
Mon 01:22:40 AM 33.7719 -118.6683 164° South 343 395 14,000 -148 Level Los Angeles Center
Mon 01:23:41 AM 33.6808 -118.6358 163° South 345 397 13,700 -634 Descending Los Angeles Center
Mon 01:24:43 AM 33.5917 -118.6014 162° South 341 392 12,700 -1,073 Descending Los Angeles Center
Mon 01:25:44 AM 33.5000 -118.5261 146° Southeast 337 388 11,500 -1,122 Descending Los Angeles Center
Mon 01:26:46 AM 33.4494 -118.4447 127° Southeast 321 369 10,400 -1,220 Descending Los Angeles Center
Mon 01:27:47 AM 33.4778 -118.3522 70° East 303 349 9,000 -1,475 Descending Los Angeles Center
Mon 01:28:48 AM 33.5144 -118.2633 64° Northeast 302 348 7,400 -1,268 Descending Los Angeles Center
Mon 01:29:50 AM 33.5489 -118.1772 64° Northeast 297 342 6,400 -634 Descending Los Angeles Center
Mon 01:30:51 AM 33.5733 -118.1156 65° Northeast 278 320 6,100 -732 Descending Los Angeles Center
Mon 01:31:53 AM 33.6250 -118.0328 53° Northeast 230 265 4,900 -1,137 Descending Los Angeles Center
Mon 01:32:26 AM 33.6500 -118.0000 47° Northeast 227 261 4,300 -1,032 Descending Southern California TRACON
Mon 01:33:26 AM 33.7000 -117.9500 40° Northeast 225 259 3,300 -800 Descending Southern California TRACON
Mon 01:34:26 AM 33.7333 -117.9000 51° Northeast 218 251 2,700 -500 Descending Southern California TRACON
Mon 01:35:26 AM 33.7833 -117.8500 40° Northeast 203 234 2,300 -632 Descending Southern California TRACON
Mon 01:36:20 AM 33.7500 -117.8333 157° South 164 189 1,500 -842 Descending Southern California TRACON
Mon 01:37:20 AM 33.7167 -117.8500 203° Southwest 124 143 700 -700 Descending Southern California TRACON
Mon 01:38:20 AM 33.6833 -117.8667 203° Southwest 134 154 100 -600 Descending Southern California TRACON

Login

Don't have an account? Register now (free) for customized features, flight alerts, and more!